Time;durP1;ratioP1;P1;durP2;ratioP2;P2;SDS_P1;SDS_P2;PMS_P1;PMS_P2;Temp;Humidity;BMP_temperature;BMP_pressure;BME280_temperature;BME280_humidity;BME280_pressure;Samples;Min_cycle;Max_cycle;Signal;HPM_P1;HPM_P2
2022/10/30 00:01:20;;;;;;;8.70;6.13;;;18.70;62.40;;;17.63;60.89;101561.09;12251738;19;20033;-90
2022/10/30 00:05:23;;;;;;;7.88;6.47;;;18.70;62.20;;;17.69;60.82;101592.34;12248293;19;20018;-90
2022/10/30 00:09:24;;;;;;;8.65;6.30;;;18.50;61.60;;;17.64;60.70;101588.34;12250621;19;20010;-90
2022/10/30 00:13:26;;;;;;;7.90;5.50;;;18.40;61.40;;;17.28;60.79;101544.25;12250316;19;20015;-90
2022/10/30 00:17:28;;;;;;;8.68;6.22;;;18.50;61.30;;;17.41;60.86;101571.47;12248896;19;20014;-91
2022/10/30 00:21:30;;;;;;;6.22;5.40;;;18.30;61.20;;;17.35;60.86;101561.34;12251618;19;20031;-90
2022/10/30 00:25:35;;;;;;;7.05;5.03;;;18.40;61.50;;;17.39;60.91;101573.38;12249733;19;20007;-90
2022/10/30 00:29:36;;;;;;;8.13;5.72;;;18.10;61.70;;;17.00;60.78;101512.72;12250154;19;20559;-90
2022/10/30 00:33:38;;;;;;;9.00;5.80;;;18.10;61.80;;;16.99;60.75;101520.75;12249621;19;20010;-90
2022/10/30 00:37:40;;;;;;;6.63;4.60;;;18.10;61.30;;;17.14;60.67;101547.84;12247514;19;20010;-90
2022/10/30 00:41:45;;;;;;;8.02;5.32;;;18.00;61.30;;;17.21;60.94;101571.06;12249416;19;20025;-90
2022/10/30 00:45:46;;;;;;;8.40;5.78;;;18.00;61.40;;;17.15;60.81;101560.13;12251339;19;20356;-90
2022/10/30 00:50:12;;;;;;;7.95;5.25;;;17.90;61.40;;;17.08;60.90;101559.69;12259434;19;20026;-90
2022/10/30 00:54:16;;;;;;;6.35;5.63;;;17.90;61.60;;;16.98;60.83;101546.25;12258934;19;20332;-90
2022/10/30 00:58:41;;;;;;;10.38;5.03;;;17.80;62.50;;;16.96;61.04;101548.19;12256170;19;20043;-90
2022/10/30 01:02:43;;;;;;;8.55;5.22;;;17.80;61.80;;;17.01;60.92;101547.84;12258340;19;20023;-90
2022/10/30 01:06:50;;;;;;;8.77;5.72;;;17.80;61.60;;;16.59;60.93;101479.44;12258210;19;20007;-90
2022/10/30 01:10:53;;;;;;;8.63;5.32;;;17.70;61.30;;;16.52;60.97;101459.72;12259941;19;20017;-89
2022/10/30 01:14:59;;;;;;;6.13;5.47;;;17.80;61.10;;;16.92;60.68;101537.94;12252603;19;20022;-90
2022/10/30 01:19:32;;;;;;;7.03;5.03;;;17.70;61.00;;;16.83;60.55;101538.59;12261845;19;20006;-90
2022/10/30 01:24:07;;;;;;;4.93;4.45;;;17.60;60.80;;;16.77;60.93;101539.84;12259596;19;20014;-91
2022/10/30 01:28:26;;;;;;;7.32;4.80;;;17.50;61.20;;;16.72;60.94;101532.22;12253829;19;20014;-90
2022/10/30 01:33:03;;;;;;;9.05;4.85;;;17.50;61.50;;;16.49;60.79;101503.91;12259314;19;20019;-90
2022/10/30 01:37:18;;;;;;;6.40;5.47;;;17.40;61.70;;;16.62;60.97;101525.88;12255851;19;20039;-90
2022/10/30 01:41:20;;;;;;;6.63;5.50;;;17.50;62.00;;;16.60;60.93;101519.84;12258944;19;20010;-90
2022/10/30 01:45:54;;;;;;;9.80;6.07;;;17.40;62.00;;;16.62;61.11;101523.22;12256665;19;20022;-90
2022/10/30 01:50:21;;;;;;;8.60;5.45;;;17.40;62.00;;;16.53;60.89;101514.16;12259764;19;20479;-90
2022/10/30 01:54:40;;;;;;;6.47;4.88;;;17.30;62.00;;;16.48;61.06;101494.34;12254990;19;20014;-90
2022/10/30 01:59:06;;;;;;;5.90;5.05;;;17.30;61.90;;;16.41;61.06;101499.16;12258722;19;20026;-90
2022/10/30 02:03:08;;;;;;;6.15;5.15;;;17.20;61.90;;;16.46;61.19;101493.59;12258605;19;20015;-90
2022/10/30 02:07:11;;;;;;;5.65;4.97;;;17.40;62.00;;;16.41;60.95;101490.41;12248388;19;20475;-90
2022/10/30 02:11:20;;;;;;;9.85;5.95;;;17.20;62.00;;;16.43;61.08;101489.34;12257982;19;20476;-90
2022/10/30 02:15:22;;;;;;;5.82;5.18;;;17.20;61.90;;;16.41;61.03;101483.34;12252866;19;20046;-90
2022/10/30 02:19:23;;;;;;;7.43;5.38;;;17.20;61.40;;;16.40;60.98;101480.81;12257585;19;20018;-90
2022/10/30 02:23:28;;;;;;;6.93;4.95;;;17.30;61.20;;;16.38;60.95;101480.91;12255627;19;20046;-90
2022/10/30 02:27:30;;;;;;;7.50;4.93;;;17.30;61.10;;;16.29;60.89;101471.84;12252748;19;20014;-90
2022/10/30 02:31:31;;;;;;;7.05;5.30;;;17.10;61.20;;;16.31;61.08;101483.13;12255748;19;20018;-90
2022/10/30 02:35:34;;;;;;;8.48;5.43;;;17.10;61.30;;;16.24;60.93;101468.66;12251180;19;20015;-90
2022/10/30 02:39:35;;;;;;;7.82;4.53;;;17.30;61.60;;;16.25;61.06;101474.78;12254307;19;20086;-90
2022/10/30 02:43:38;;;;;;;6.57;4.80;;;17.00;61.30;;;16.20;61.19;101479.50;12255587;19;20014;-90
2022/10/30 02:47:40;;;;;;;5.40;4.88;;;17.30;61.50;;;15.96;61.07;101439.81;12251743;19;20014;-90
2022/10/30 02:51:42;;;;;;;8.30;4.78;;;16.90;61.40;;;16.09;61.34;101464.41;12255336;19;20436;-91
2022/10/30 02:55:43;;;;;;;8.60;4.95;;;16.90;61.60;;;16.15;61.24;101472.78;12251201;19;20006;-90
2022/10/30 02:59:45;;;;;;;7.05;5.13;;;16.90;61.70;;;16.11;61.07;101462.53;12256713;19;20023;-90
2022/10/30 03:03:47;;;;;;;6.68;5.18;;;17.00;61.70;;;16.10;61.10;101472.22;12256457;19;20015;-90
2022/10/30 03:07:50;;;;;;;8.63;5.38;;;16.90;61.50;;;15.91;61.15;101448.06;12249004;19;20015;-91
2022/10/30 03:11:52;;;;;;;7.93;5.05;;;17.10;61.60;;;15.81;61.22;101447.81;12252081;19;20014;-90
2022/10/30 03:16:03;;;;;;;5.70;4.80;;;16.80;61.50;;;16.02;61.21;101485.06;12250480;19;20506;-91
2022/10/30 03:20:07;;;;;;;5.75;4.65;;;16.80;61.70;;;15.98;61.27;101473.03;12253393;19;20034;-90
2022/10/30 03:24:09;;;;;;;7.72;4.82;;;16.80;61.60;;;15.96;61.20;101481.97;12254243;19;20463;-90
2022/10/30 03:28:11;;;;;;;8.15;5.03;;;16.70;61.10;;;15.90;61.28;101481.47;12245711;19;20478;-90
2022/10/30 03:32:13;;;;;;;5.07;4.63;;;16.70;61.20;;;15.68;61.01;101452.16;12253301;19;20013;-90
2022/10/30 03:36:26;;;;;;;6.38;4.47;;;16.70;61.30;;;15.89;61.28;101487.66;12249837;19;20019;-90
2022/10/30 03:40:27;;;;;;;7.38;4.80;;;16.70;61.60;;;15.74;61.21;101454.41;12252562;19;20014;-90
2022/10/30 03:44:29;;;;;;;6.22;5.15;;;16.60;61.60;;;15.76;61.28;101457.78;12250792;19;20499;-90
2022/10/30 03:48:31;;;;;;;5.25;4.72;;;16.60;61.60;;;15.46;61.28;101411.41;12251193;19;20651;-90
2022/10/30 03:52:34;;;;;;;5.85;4.15;;;16.80;61.90;;;15.81;61.21;101474.13;12252421;19;20011;-90
2022/10/30 03:56:36;;;;;;;5.80;5.07;;;16.60;61.80;;;15.52;61.10;101422.50;12249880;19;20579;-90
2022/10/30 04:00:39;;;;;;;4.90;4.35;;;16.60;61.80;;;15.78;61.28;101455.06;12248199;19;20030;-90
2022/10/30 04:04:41;;;;;;;4.72;4.22;;;16.60;61.50;;;15.65;61.25;101433.91;12248900;19;20039;-91
2022/10/30 04:08:43;;;;;;;6.18;4.47;;;16.50;61.30;;;15.40;61.21;101401.28;12251216;19;20010;-90
2022/10/30 04:12:45;;;;;;;5.47;4.22;;;16.50;61.60;;;15.64;61.41;101434.88;12250832;19;20528;-90
2022/10/30 04:16:48;;;;;;;5.25;4.57;;;16.60;61.90;;;15.21;61.13;101367.44;12248980;19;20003;-90
2022/10/30 04:20:50;;;;;;;4.95;4.45;;;16.70;61.90;;;15.60;61.19;101439.47;12250444;19;20082;-90
2022/10/30 04:24:53;;;;;;;5.18;4.43;;;16.40;61.60;;;15.41;61.42;101413.50;12247913;19;20376;-90
2022/10/30 04:28:55;;;;;;;9.63;4.05;;;16.40;61.80;;;15.45;61.16;101433.44;12248854;19;20011;-91
2022/10/30 04:32:58;;;;;;;5.35;4.28;;;16.40;62.00;;;15.42;61.37;101443.31;12249076;19;20333;-90
2022/10/30 04:37:04;;;;;;;4.60;4.05;;;16.30;62.20;;;15.51;61.52;101458.50;12247655;19;20011;-90
2022/10/30 04:41:06;;;;;;;6.22;3.92;;;16.30;62.50;;;15.24;61.40;101419.00;12250189;19;20006;-90
2022/10/30 04:45:22;;;;;;;8.02;4.13;;;16.30;62.70;;;15.05;61.36;101388.59;12247976;19;20037;-90
2022/10/30 04:49:24;;;;;;;7.07;4.43;;;16.30;62.90;;;15.57;61.48;101473.91;12249940;19;20346;-90
2022/10/30 04:53:26;;;;;;;5.32;4.28;;;16.40;63.20;;;15.43;61.39;101456.38;12246495;19;20085;-90
2022/10/30 04:57:35;;;;;;;4.97;4.25;;;16.30;63.00;;;15.41;61.53;101460.88;12244280;19;20007;-90
2022/10/30 05:01:38;;;;;;;7.47;4.65;;;16.30;63.00;;;15.46;61.56;101461.44;12246163;19;20387;-90
2022/10/30 05:05:42;;;;;;;5.28;4.72;;;16.40;63.20;;;15.53;61.74;101484.72;12246447;19;20013;-90
2022/10/30 05:09:44;;;;;;;5.18;4.68;;;16.30;63.40;;;15.23;61.56;101425.22;12246590;19;20023;-90
2022/10/30 05:13:47;;;;;;;6.47;4.93;;;16.40;63.50;;;15.25;61.87;101421.53;12244210;19;20014;-90
2022/10/30 05:17:54;;;;;;;6.85;4.65;;;16.60;63.90;;;15.56;61.77;101476.66;12242255;19;20018;-90
2022/10/30 05:21:56;;;;;;;;;;;16.40;63.90;;;15.46;61.54;101456.16;12247647;19;20095;-90
2022/10/30 05:26:01;;;;;;;7.10;4.00;;;16.30;63.30;;;15.43;61.67;101437.09;12244595;19;19985;-90
2022/10/30 05:30:06;;;;;;;5.47;3.80;;;16.40;63.60;;;15.45;61.81;101449.22;12246898;19;20475;-90
2022/10/30 05:34:07;;;;;;;5.72;4.40;;;16.40;63.60;;;15.17;61.76;101402.75;12247572;19;20007;-90
2022/10/30 05:38:13;;;;;;;7.35;4.57;;;16.50;64.50;;;15.47;61.82;101439.44;12253292;19;20018;-90
2022/10/30 05:42:15;;;;;;;4.63;4.03;;;16.40;63.80;;;15.57;61.95;101462.53;12258773;19;20013;-90
2022/10/30 05:46:19;;;;;;;8.65;4.80;;;16.40;63.80;;;15.38;61.88;101421.59;12256346;19;20035;-90
2022/10/30 05:50:22;;;;;;;9.07;5.47;;;16.40;63.90;;;15.55;61.90;101438.94;12258844;19;20015;-90
2022/10/30 05:54:44;;;;;;;6.47;5.18;;;16.40;64.30;;;15.61;61.90;101432.44;12254190;19;20007;-90
2022/10/30 05:58:54;;;;;;;5.65;5.10;;;16.70;64.70;;;15.57;62.01;101415.16;12259408;19;20041;-90
2022/10/30 06:03:06;;;;;;;5.85;4.82;;;16.40;64.60;;;15.48;61.99;101395.53;12257760;19;20031;-90
2022/10/30 06:07:10;;;;;;;7.90;5.00;;;16.40;64.70;;;15.54;62.09;101431.16;12255751;19;20039;-90
2022/10/30 06:11:12;;;;;;;6.47;4.85;;;16.40;64.60;;;15.49;61.99;101434.91;12259198;19;20010;-90
2022/10/30 06:15:16;;;;;;;8.55;5.07;;;16.40;64.80;;;15.23;62.10;101377.88;12254726;19;20014;-90
2022/10/30 06:19:18;;;;;;;8.73;6.15;;;16.70;65.30;;;15.24;62.14;101346.19;12257820;19;20019;-90
2022/10/30 06:23:21;;;;;;;7.18;5.00;;;16.50;65.30;;;15.53;62.06;101427.66;12255168;19;20014;-90
2022/10/30 06:27:28;;;;;;;6.75;4.88;;;16.40;64.90;;;15.55;62.20;101417.88;12250289;19;20338;-90
2022/10/30 06:31:30;;;;;;;6.70;5.03;;;16.40;65.30;;;15.54;62.22;101421.44;12255608;19;20050;-92
2022/10/30 06:35:34;;;;;;;9.57;5.07;;;16.40;65.70;;;15.57;62.25;101423.03;12247192;19;20014;-89
2022/10/30 06:39:36;;;;;;;8.65;5.68;;;16.40;65.80;;;15.53;62.38;101429.44;12250851;19;20011;-89
2022/10/30 06:43:56;;;;;;;7.57;5.90;;;16.40;66.40;;;15.57;62.36;101415.97;12251259;19;20010;-88
2022/10/30 06:48:00;;;;;;;7.88;6.15;;;16.50;66.30;;;15.67;62.36;101437.31;12244983;19;20034;-92
2022/10/30 06:52:05;;;;;;;6.22;5.20;;;16.60;66.40;;;15.46;62.40;101393.00;12249778;19;20022;-87
2022/10/30 06:56:08;;;;;;;7.13;5.03;;;16.50;66.30;;;15.59;62.48;101415.91;12247786;19;20014;-88
2022/10/30 07:00:40;;;;;;;5.05;4.13;;;16.50;66.10;;;15.67;62.36;101435.50;12251668;19;20010;-88
2022/10/30 07:05:05;;;;;;;6.43;5.33;;;16.60;66.10;;;15.75;62.38;101456.13;12248058;19;20019;-88
2022/10/30 07:09:07;;;;;;;6.97;5.20;;;16.60;66.00;;;15.76;62.44;101455.16;12249109;19;20014;-88
2022/10/30 07:13:09;;;;;;;9.18;4.10;;;16.60;66.40;;;15.72;62.56;101435.25;12249483;19;20014;-91
2022/10/30 07:17:20;;;;;;;7.43;4.70;;;16.70;66.50;;;15.55;62.50;101411.75;12248531;19;20018;-92
2022/10/30 07:21:28;;;;;;;4.75;4.35;;;16.60;66.40;;;15.72;62.58;101429.97;12250744;19;20033;-88
2022/10/30 07:25:32;;;;;;;6.03;4.53;;;16.60;66.70;;;15.87;62.59;101451.81;12248996;19;20022;-87
2022/10/30 07:29:57;;;;;;;8.50;4.45;;;16.70;66.90;;;15.88;62.70;101454.38;12249158;19;20019;-88
2022/10/30 07:34:12;;;;;;;8.70;5.10;;;16.70;67.10;;;15.96;62.77;101464.41;12246752;19;20007;-88
2022/10/30 07:38:19;;;;;;;6.75;5.00;;;16.80;67.20;;;15.68;62.97;101429.31;12245389;19;20019;-87
2022/10/30 07:42:32;;;;;;;8.32;5.10;;;16.80;67.20;;;15.88;62.94;101472.81;12246045;19;20468;-88
2022/10/30 07:46:52;;;;;;;8.32;5.05;;;16.90;67.30;;;16.03;62.73;101484.09;12247234;19;20018;-90
2022/10/30 07:51:08;;;;;;;8.10;5.47;;;16.90;67.30;;;16.07;62.95;101485.59;12248532;19;20019;-89
2022/10/30 07:55:11;;;;;;;8.88;5.75;;;16.90;67.10;;;16.10;62.74;101488.03;12241852;19;20074;-89
2022/10/30 07:59:18;;;;;;;11.10;6.63;;;17.00;67.50;;;16.02;62.97;101463.16;12247979;19;20015;-89
2022/10/30 08:03:33;;;;;;;10.05;5.90;;;17.10;67.80;;;16.05;62.96;101460.31;12245923;19;20039;-89
2022/10/30 08:07:55;;;;;;;8.88;5.47;;;17.10;67.90;;;16.12;63.11;101459.81;12243976;19;20014;-88
2022/10/30 08:11:57;;;;;;;8.23;5.70;;;17.10;67.90;;;16.27;63.28;101472.88;12246753;19;20014;-90
2022/10/30 08:15:58;;;;;;;8.32;6.18;;;17.20;68.00;;;16.37;63.16;101490.63;12242320;19;20022;-89
2022/10/30 08:20:00;;;;;;;7.13;5.82;;;17.30;68.30;;;16.30;63.01;101447.16;12245992;19;20643;-89
2022/10/30 08:24:02;;;;;;;7.18;5.80;;;17.60;68.90;;;16.35;63.15;101449.50;12246841;19;20006;-89
2022/10/30 08:28:07;;;;;;;6.35;5.55;;;17.40;69.20;;;16.59;63.39;101474.19;12244435;19;20018;-89
2022/10/30 08:32:11;;;;;;;9.88;5.65;;;17.70;69.20;;;16.68;63.59;101483.25;12246676;19;20010;-90
2022/10/30 08:36:31;;;;;;;8.93;5.85;;;17.50;68.70;;;16.70;63.35;101443.59;12247292;19;20648;-90
2022/10/30 08:40:33;;;;;;;8.45;5.72;;;17.90;69.40;;;16.83;63.36;101477.91;12238891;19;20086;-90
2022/10/30 08:44:41;;;;;;;8.15;6.20;;;17.70;69.20;;;16.85;63.73;101437.28;12243076;19;20048;-90
2022/10/30 08:48:57;;;;;;;9.10;5.88;;;17.80;69.60;;;16.87;63.82;101456.47;12243205;19;20022;-90
2022/10/30 08:53:12;;;;;;;10.63;6.35;;;17.90;69.70;;;17.06;63.71;101476.28;12243236;19;20015;-90
2022/10/30 08:57:13;;;;;;;8.82;5.65;;;18.20;69.70;;;17.04;63.61;101428.91;12241474;19;20035;-91
2022/10/30 09:01:15;;;;;;;7.88;5.03;;;18.10;69.40;;;17.30;63.83;101457.88;12244823;19;20491;-90
2022/10/30 09:09:54;;;;;;;7.38;5.55;;;18.50;69.70;;;17.40;63.79;101417.47;12244748;19;20794;-88
2022/10/30 09:13:58;;;;;;;7.70;5.78;;;18.70;69.30;;;17.56;63.98;101419.84;12253099;19;20467;-89
2022/10/30 09:18:03;;;;;;;7.43;5.30;;;18.90;68.40;;;18.04;64.01;101477.97;12251561;19;20014;-88
2022/10/30 09:22:05;;;;;;;13.90;6.38;;;19.20;68.10;;;17.90;63.84;101420.00;12256540;19;20010;-88
2022/10/30 09:26:11;;;;;;;6.10;5.15;;;19.40;67.50;;;18.18;63.87;101432.00;12251707;19;20019;-88
2022/10/30 09:30:51;;;;;;;7.68;5.20;;;19.40;67.10;;;18.58;63.89;101479.19;12255219;19;20026;-88
2022/10/30 09:34:54;;;;;;;11.27;5.60;;;19.80;66.60;;;18.56;63.90;101441.44;12251383;19;20528;-89
2022/10/30 09:39:00;;;;;;;8.48;4.93;;;19.80;66.30;;;18.92;63.73;101477.44;12255641;19;20011;-87
2022/10/30 09:43:42;;;;;;;6.88;5.65;;;20.00;65.80;;;19.11;63.68;101486.56;12254847;19;20027;-87
2022/10/30 09:48:43;;;;;;;5.13;4.63;;;20.20;65.20;;;19.29;63.65;101471.03;12250924;19;20021;-87
2022/10/30 09:53:16;;;;;;;5.87;5.13;;;20.40;65.40;;;19.49;63.91;101453.53;12249428;19;20042;-87
2022/10/30 09:57:31;;;;;;;10.27;4.90;;;20.70;63.40;;;19.67;63.63;101449.41;12250932;19;20082;-88
2022/10/30 10:01:53;;;;;;;7.78;4.47;;;20.80;63.40;;;19.70;63.72;101438.56;12255394;19;20015;-88
2022/10/30 10:05:59;;;;;;;5.05;4.25;;;21.00;63.00;;;19.94;63.59;101446.28;12251778;19;20022;-91
2022/10/30 10:10:38;;;;;;;10.35;4.82;;;21.10;62.60;;;19.95;63.48;101428.56;12254660;19;20010;-91
2022/10/30 10:14:48;;;;;;;4.95;3.70;;;21.50;62.80;;;20.29;63.57;101438.00;12250487;19;20620;-89
2022/10/30 10:19:19;;;;;;;5.35;3.85;;;21.50;61.90;;;20.45;63.64;101447.31;12254432;19;20035;-89
2022/10/30 10:23:40;;;;;;;4.53;3.70;;;21.70;61.80;;;20.51;63.45;101434.34;12254084;19;20018;-90
2022/10/30 10:28:05;;;;;;;4.28;3.72;;;21.80;61.50;;;20.76;63.27;101450.84;12251641;19;20043;-90
2022/10/30 10:32:31;;;;;;;6.82;4.13;;;22.00;61.60;;;20.82;63.24;101433.53;12254632;19;20373;-89
2022/10/30 10:37:03;;;;;;;8.07;4.00;;;22.20;60.80;;;21.09;63.00;101451.53;12258831;19;20019;-90
2022/10/30 10:41:29;;;;;;;4.88;3.60;;;22.40;60.00;;;21.25;62.63;101451.00;12259446;19;20113;-90
2022/10/30 10:46:14;;;;;;;5.95;4.30;;;22.50;59.40;;;21.31;62.58;101445.16;12256233;19;20047;-89
2022/10/30 10:50:35;;;;;;;5.82;3.33;;;22.60;59.90;;;21.41;62.80;101443.38;12261158;19;20019;-89
2022/10/30 10:54:47;;;;;;;6.65;4.47;;;22.70;59.50;;;21.52;62.18;101453.91;12257894;19;20022;-89
2022/10/30 10:59:16;;;;;;;6.72;3.70;;;22.80;59.40;;;21.47;62.19;101431.34;12258571;19;20066;-89
2022/10/30 11:03:49;;;;;;;6.85;4.30;;;22.80;59.20;;;21.64;62.21;101452.78;12251787;19;20583;-89
2022/10/30 11:07:55;;;;;;;4.70;4.25;;;22.90;58.90;;;21.57;61.94;101424.22;12254918;19;20443;-89
2022/10/30 11:11:57;;;;;;;7.28;4.93;;;22.90;58.60;;;21.43;61.55;101390.94;12255843;19;20040;-89
2022/10/30 11:16:23;;;;;;;6.72;4.60;;;22.90;58.50;;;21.76;61.44;101448.16;12249400;19;20346;-89
2022/10/30 11:20:58;;;;;;;6.47;4.30;;;22.90;58.60;;;21.78;61.66;101442.72;12253026;19;20014;-90
2022/10/30 11:25:34;;;;;;;4.75;3.40;;;22.90;58.80;;;21.67;61.44;101417.09;12249445;19;20018;-90
2022/10/30 11:29:36;;;;;;;7.93;4.07;;;23.00;59.00;;;21.78;61.17;101427.59;12246600;19;20018;-89
2022/10/30 11:33:38;;;;;;;5.18;3.75;;;23.00;58.70;;;21.89;61.45;101431.91;12249088;19;20456;-88
2022/10/30 11:37:42;;;;;;;7.97;3.97;;;23.00;58.40;;;21.93;61.09;101436.00;12252178;19;20074;-88
2022/10/30 11:41:58;;;;;;;6.30;4.07;;;23.00;58.30;;;21.84;61.01;101421.69;12254136;19;20018;-88
2022/10/30 11:46:01;;;;;;;11.43;3.75;;;23.00;58.30;;;21.88;60.72;101423.13;12249471;19;20292;-89
2022/10/30 11:50:17;;;;;;;6.50;3.05;;;23.10;58.20;;;22.02;60.89;101436.97;12251814;19;20011;-89
2022/10/30 11:54:22;;;;;;;5.75;3.40;;;23.10;58.30;;;22.08;60.64;101445.19;12249098;19;20014;-88
2022/10/30 11:58:36;;;;;;;4.63;3.50;;;23.10;58.40;;;22.05;60.64;101434.84;12244582;19;20018;-87
2022/10/30 12:02:44;;;;;;;4.43;3.87;;;23.10;58.10;;;22.10;60.59;101434.44;12251732;19;20023;-89
2022/10/30 12:06:46;;;;;;;6.35;3.50;;;23.30;58.30;;;21.97;60.31;101405.47;12248663;19;20047;-90
2022/10/30 12:11:01;;;;;;;4.13;3.63;;;23.30;58.00;;;22.23;60.34;101437.66;12250755;19;20011;-89
2022/10/30 12:15:20;;;;;;;7.05;4.00;;;23.30;58.10;;;22.31;60.46;101435.13;12246606;19;20021;-89
2022/10/30 12:19:24;;;;;;;5.68;3.88;;;23.30;58.20;;;22.12;60.22;101384.59;12249559;19;20039;-92
2022/10/30 12:23:28;;;;;;;6.60;4.00;;;23.40;57.90;;;22.00;60.04;101351.97;12251186;19;20093;-88
2022/10/30 12:27:36;;;;;;;5.07;3.30;;;23.40;57.60;;;22.40;59.79;101414.78;12248064;19;20498;-87
2022/10/30 12:31:51;;;;;;;5.53;4.68;;;23.40;57.90;;;22.48;59.72;101425.53;12251190;19;20023;-88
2022/10/30 12:36:05;;;;;;;5.82;3.95;;;23.70;57.80;;;22.51;60.16;101421.75;12246020;19;20019;-89
2022/10/30 12:40:29;;;;;;;5.68;3.97;;;23.50;57.60;;;22.52;59.59;101416.28;12248146;19;20476;-90
2022/10/30 12:44:47;;;;;;;4.45;3.20;;;23.60;57.60;;;22.59;59.66;101415.69;12254408;19;20551;-89
2022/10/30 12:49:06;;;;;;;6.30;3.60;;;23.60;57.40;;;22.35;59.71;101381.59;12261688;19;20018;-89
2022/10/30 12:53:36;;;;;;;12.43;3.75;;;23.70;57.40;;;22.68;59.38;101425.47;12257695;19;20019;-88
2022/10/30 12:57:57;;;;;;;7.55;3.50;;;23.60;57.60;;;22.69;59.52;101427.16;12252726;19;20050;-89
2022/10/30 13:02:14;;;;;;;4.53;3.03;;;23.70;57.50;;;22.67;59.52;101415.81;12258848;19;20014;-88
2022/10/30 13:06:22;;;;;;;7.32;3.50;;;23.70;57.20;;;22.75;59.04;101414.06;12254669;19;20015;-88
2022/10/30 13:10:49;;;;;;;7.80;3.85;;;23.70;57.00;;;22.79;59.45;101417.31;12257158;19;20062;-89
2022/10/30 13:15:02;;;;;;;4.10;3.20;;;23.70;57.40;;;22.79;59.24;101401.31;12255552;19;20357;-93
2022/10/30 13:19:09;;;;;;;4.07;3.20;;;23.80;57.30;;;22.78;58.95;101402.28;12258892;19;20022;-88
2022/10/30 13:23:23;;;;;;;6.68;3.03;;;23.80;57.30;;;22.74;59.01;101399.09;12255705;19;20014;-88
2022/10/30 13:27:47;;;;;;;7.65;3.42;;;23.90;57.40;;;22.92;58.84;101411.59;12252260;19;20043;-88
2022/10/30 13:32:10;;;;;;;6.28;2.67;;;23.80;57.50;;;22.86;59.01;101402.38;12258609;19;20007;-88
2022/10/30 13:36:31;;;;;;;;;;;23.90;57.30;;;22.83;58.99;101397.38;12248786;19;20014;-89
2022/10/30 13:41:03;;;;;;;6.97;2.35;;;23.90;58.30;;;22.97;59.11;101401.38;12255835;19;20296;-89
2022/10/30 13:45:36;;;;;;;6.47;3.28;;;23.90;57.00;;;23.01;58.93;101402.78;12253445;19;20032;-88
2022/10/30 13:50:01;;;;;;;8.40;3.03;;;23.90;57.10;;;23.03;58.92;101402.59;12257028;19;20014;-88
2022/10/30 13:54:34;;;;;;;4.57;3.15;;;23.90;56.90;;;22.93;58.51;101389.34;12251541;19;20019;-88
2022/10/30 13:59:02;;;;;;;4.65;3.05;;;23.90;57.30;;;22.94;58.93;101391.81;12255614;19;20019;-88
2022/10/30 14:03:35;;;;;;;7.63;3.28;;;23.90;57.20;;;23.05;58.38;101406.81;12253577;19;20354;-89
2022/10/30 14:07:46;;;;;;;4.70;3.10;;;24.00;57.20;;;23.09;58.77;101410.03;12248189;19;20074;-87
2022/10/30 14:11:48;;;;;;;8.15;3.20;;;24.00;57.40;;;23.00;58.38;101387.75;12256852;19;20003;-88
2022/10/30 14:15:54;;;;;;;6.22;2.95;;;24.10;57.00;;;22.92;58.66;101387.63;12251636;19;20026;-87
2022/10/30 14:20:04;;;;;;;5.82;3.58;;;24.00;57.10;;;23.10;58.29;101415.19;12256354;19;20014;-87
2022/10/30 14:24:27;;;;;;;6.90;3.60;;;23.90;57.00;;;23.09;58.61;101424.19;12254524;19;20484;-87
2022/10/30 14:28:42;;;;;;;6.10;2.80;;;24.00;57.40;;;23.05;58.27;101405.97;12244771;19;20036;-87
2022/10/30 14:32:50;;;;;;;5.70;2.85;;;24.00;57.20;;;23.07;58.19;101414.66;12252864;19;20007;-87
2022/10/30 14:36:52;;;;;;;5.93;2.97;;;24.00;57.00;;;22.99;58.13;101402.06;12250616;19;20019;-88
2022/10/30 14:40:53;;;;;;;5.82;3.20;;;24.00;57.10;;;23.07;58.41;101417.31;12255756;19;20783;-86
2022/10/30 14:45:28;;;;;;;6.05;3.42;;;24.10;57.20;;;22.93;58.06;101411.47;12254136;19;20019;-88
2022/10/30 14:49:52;;;;;;;7.22;3.47;;;23.90;57.40;;;22.96;57.85;101424.53;12253301;19;20011;-87
2022/10/30 14:54:19;;;;;;;5.97;3.53;;;23.80;57.40;;;22.90;58.24;101422.44;12253851;19;20090;-88
2022/10/30 14:58:30;;;;;;;10.52;3.92;;;23.80;57.50;;;22.71;57.96;101402.06;12247858;19;20018;-88
2022/10/30 15:02:46;;;;;;;8.00;4.00;;;23.70;57.40;;;22.68;58.24;101404.16;12255239;19;20018;-89
2022/10/30 15:07:19;;;;;;;6.30;4.25;;;23.70;57.40;;;22.71;58.22;101422.50;12248514;19;20041;-88
2022/10/30 15:11:59;;;;;;;7.05;3.08;;;23.70;57.60;;;22.43;57.73;101401.19;12250231;19;20088;-88
2022/10/30 15:16:06;;;;;;;6.47;3.08;;;23.40;57.60;;;22.45;58.14;101419.69;12246027;19;20488;-88
2022/10/30 15:20:23;;;;;;;10.77;3.58;;;23.30;57.70;;;22.35;58.12;101424.19;12252626;19;20057;-89
2022/10/30 15:24:28;;;;;;;5.78;2.95;;;23.20;57.70;;;22.30;57.94;101430.78;12250615;19;20369;-88
2022/10/30 15:28:40;;;;;;;5.22;3.20;;;23.10;57.80;;;21.73;57.98;101349.22;12306031;19;20360;-87
2022/10/30 15:32:42;;;;;;;3.90;3.35;;;23.10;57.90;;;21.73;58.22;101365.19;12308594;19;20010;-88
2022/10/30 15:36:43;;;;;;;6.72;3.45;;;22.90;57.80;;;21.75;58.20;101381.84;12303990;19;20014;-88
2022/10/30 15:40:45;;;;;;;5.25;3.40;;;23.00;57.90;;;21.68;57.88;101388.69;12308124;19;20014;-89
2022/10/30 15:44:47;;;;;;;3.88;3.30;;;22.90;58.00;;;21.50;58.01;101365.50;12308076;19;20033;-89
2022/10/30 15:48:49;;;;;;;6.25;4.00;;;22.80;58.20;;;21.53;57.82;101381.16;12309060;19;20018;-89
2022/10/30 15:52:52;;;;;;;5.70;4.00;;;22.60;58.10;;;21.48;58.11;101379.91;12307449;19;20014;-89
2022/10/30 15:56:57;;;;;;;6.22;3.78;;;22.50;58.20;;;21.41;58.25;101372.50;12304879;19;20459;-89
2022/10/30 16:01:01;;;;;;;6.30;4.07;;;22.60;58.30;;;21.19;58.28;101346.97;12306706;19;20014;-88
2022/10/30 16:05:22;;;;;;;6.25;3.92;;;22.40;58.30;;;21.28;58.08;101381.66;12305353;19;20041;-89
2022/10/30 16:09:26;;;;;;;5.65;3.38;;;22.30;58.30;;;21.24;58.16;101382.91;12308223;19;20011;-88
2022/10/30 16:13:30;;;;;;;6.87;3.93;;;22.20;58.20;;;21.18;58.22;101381.66;12306813;19;20029;-90
2022/10/30 16:17:32;;;;;;;9.82;4.68;;;22.20;58.30;;;21.07;57.93;101366.69;12305146;19;20078;-88
2022/10/30 16:21:35;;;;;;;6.68;3.67;;;22.10;58.30;;;21.03;58.26;101367.09;12306414;19;20045;-89
2022/10/30 16:25:39;;;;;;;6.55;3.58;;;22.00;58.20;;;21.09;57.96;101399.25;12302176;19;20018;-89
2022/10/30 16:29:42;;;;;;;5.80;3.22;;;21.90;58.10;;;20.81;57.95;101368.16;12305764;19;20480;-89
2022/10/30 16:33:44;;;;;;;4.15;3.35;;;22.00;58.30;;;20.76;57.77;101377.34;12306810;19;20014;-88
2022/10/30 16:37:46;;;;;;;5.35;3.33;;;21.70;58.20;;;20.68;58.13;101381.66;12280371;19;20346;-89
2022/10/30 16:41:48;;;;;;;5.28;3.88;;;21.80;58.30;;;20.58;57.80;101386.94;12257698;19;20026;-89
2022/10/30 16:45:51;;;;;;;6.78;3.80;;;21.50;58.10;;;20.44;57.71;101373.97;12254856;19;20093;-89
2022/10/30 16:49:57;;;;;;;7.30;3.60;;;21.40;58.20;;;20.34;58.25;101379.25;12259343;19;20014;-89
2022/10/30 16:53:59;;;;;;;5.15;3.42;;;21.30;58.20;;;20.27;57.77;101370.97;12257258;19;20025;-89
2022/10/30 16:58:01;;;;;;;5.38;3.13;;;21.20;58.30;;;20.13;57.96;101373.97;12254730;19;20011;-88
2022/10/30 17:02:18;;;;;;;7.32;3.38;;;21.10;58.30;;;20.09;57.82;101389.31;12257067;19;20010;-89
2022/10/30 17:06:42;;;;;;;3.80;3.20;;;21.00;58.40;;;19.98;57.82;101386.75;12253060;19;20022;-89
2022/10/30 17:10:47;;;;;;;4.93;3.00;;;20.90;58.40;;;20.31;58.11;101438.72;12254742;19;20022;-89
2022/10/30 17:15:01;;;;;;;7.78;3.72;;;21.00;58.60;;;19.98;57.93;101400.00;12254908;19;20086;-88